HUAL Seoul — LADO6 — position and weather

sailwx.info

Track history (hours):
 
Tides and Currents Weather Stations Pressure Air Temp Water Temp Dewpoint Dewpoint Depression Visibility Wind Speed Wind Dir Waves Ship Positions

HUAL Seoul

Last reported at 2015-Jun-28 13:06 UTC. Time now 2015-Jul-04 07:02 UTC.
Position N 31°25' E 032°21'.

Type: Cargo ship. MMSI: 257496000.

Date/timePositionNaut miles runAvg speedWind from/ knotsBaromVisibWave heightAir tempDewpointWater temp
2015-Jun-28 13:06N 31°25' E 032°21'101 9.4
2015-Jun-28 02:19N 32°44' E 033°36'810.1
2015-Jun-28 01:33N 32°50' E 033°42'1010.3
2015-Jun-28 00:33N 32°57' E 033°50'1110.5
2015-Jun-27 23:33N 33°05' E 033°59'1110.8
2015-Jun-27 22:33N 33°12' E 034°09'1111.1
2015-Jun-27 21:33N 33°19' E 034°19'1110.9
2015-Jun-27 20:33N 33°26' E 034°29'1110.9
2015-Jun-27 19:33N 33°33' E 034°39'1110.9
2015-Jun-27 18:33N 33°41' E 034°49'1110.8
2015-Jun-27 17:33N 33°48' E 034°58'1110.5
2015-Jun-27 16:33N 33°55' E 035°08'10 9.6
2015-Jun-27 15:32N 33°56' E 035°20'10 9.1
2015-Jun-27 14:24N 33°56' E 035°32'2 2.4
2015-Jun-27 13:33N 33°54' E 035°31'0 0.0
2015-Jun-27 10:08N 33°54' E 035°31'51 4.7
2015-Jun-26 23:17N 33°58' E 034°30'1214.8
2015-Jun-26 22:27N 33°59' E 034°15'1914.9
2015-Jun-26 21:09N 34°00' E 033°52'914.9
2015-Jun-26 20:32N 34°01' E 033°41'1515.2
2015-Jun-26 19:31N 34°01' E 033°22'1714.6
2015-Jun-26 18:23N 34°03' E 033°02'1214.9
2015-Jun-26 17:32N 34°03' E 032°47'1615.7
2015-Jun-26 16:33N 34°04' E 032°28'1616.2
2015-Jun-26 15:34N 34°05' E 032°09'1616.0
2015-Jun-26 14:32N 34°06' E 031°49'1616.0
2015-Jun-26 13:33N 34°07' E 031°30'1212.6
2015-Jun-26 12:34N 34°08' E 031°15'1515.1
2015-Jun-26 11:33N 34°09' E 030°57'1515.0
2015-Jun-26 10:34N 34°10' E 030°39'14015.6
2015-Jun-26 01:33N 34°18' E 027°50'29115.8
2015-Jun-25 07:04N 34°54' E 021°59'815.8
2015-Jun-25 06:33N 34°56' E 021°49'4016.2
2015-Jun-25 04:05N 35°06' E 021°02'2615.9
2015-Jun-25 02:26N 35°12' E 020°31'1415.8
2015-Jun-25 01:33N 35°16' E 020°14'3215.8
2015-Jun-24 23:33N 35°23' E 019°36'1815.6
2015-Jun-24 22:24N 35°27' E 019°15'1515.3
2015-Jun-24 21:26N 35°31' E 018°57'6315.7
2015-Jun-24 17:27N 35°46' E 017°42'3015.8
2015-Jun-24 15:32N 35°53' E 017°06'1616.3
2015-Jun-24 14:33N 35°57' E 016°47'1616.4
2015-Jun-24 13:34N 36°01' E 016°27'2015.9
2015-Jun-24 12:18N 36°05' E 016°03'1216.0
2015-Jun-24 11:33N 36°08' E 015°49'1715.9
2015-Jun-24 10:28N 36°12' E 015°28'1715.8
2015-Jun-24 09:22N 36°16' E 015°07'1315.9
2015-Jun-24 08:34N 36°20' E 014°52'1716.5
2015-Jun-24 07:34N 36°25' E 014°32'1616.5
2015-Jun-24 06:34N 36°29' E 014°12'1616.0
2015-Jun-24 05:34N 36°34' E 013°53'1616.0
2015-Jun-24 04:33N 36°38' E 013°34'1616.2
2015-Jun-24 03:34N 36°43' E 013°15'1616.4
2015-Jun-24 02:34N 36°47' E 012°55'1616.1
2015-Jun-24 01:34N 36°52' E 012°36'1616.2
2015-Jun-24 00:34N 36°57' E 012°17'1616.1
2015-Jun-23 23:34N 37°01' E 011°57'1615.9
2015-Jun-23 22:34N 37°08' E 011°39'1616.2
2015-Jun-23 21:34N 37°16' E 011°22'1515.3
2015-Jun-23 20:34N 37°24' E 011°05'1615.8
2015-Jun-23 19:34N 37°29' E 010°46'816.1
2015-Jun-23 19:05N 37°32' E 010°38'37816.0
2015-Jun-22 19:33N 37°00' E 002°45'1616.5
2015-Jun-22 18:34N 36°57' E 002°25'1716.2
2015-Jun-22 17:32N 36°54' E 002°04'1616.3
2015-Jun-22 16:33N 36°51' E 001°44'1616.3
2015-Jun-22 15:34N 36°48' E 001°25'1716.5
2015-Jun-22 14:33N 36°46' E 001°04'1616.3
2015-Jun-22 13:33N 36°43' E 000°44'1616.3
2015-Jun-22 12:33N 36°40' E 000°24'1616.2
2015-Jun-22 11:34N 36°38' E 000°04'1716.5
2015-Jun-22 10:33N 36°35' W 000°16'1616.2
2015-Jun-22 09:33N 36°32' W 000°36'1816.5
2015-Jun-22 08:29N 36°29' W 000°58'1818.4
2015-Jun-22 07:30N 36°26' W 001°20'3216.2
2015-Jun-22 05:33N 36°20' W 001°58'1515.5
2015-Jun-22 04:34N 36°18' W 002°17'1716.0
2015-Jun-22 03:30N 36°15' W 002°38'3716.0
2015-Jun-22 01:11N 36°11' W 003°24'9216.4
2015-Jun-21 19:34N 35°59' W 005°17'2217.9
2015-Jun-21 18:20N 35°55' W 005°43'8417.0
2015-Jun-21 13:23N 35°54' W 007°27'1416.5
2015-Jun-21 12:34N 35°58' W 007°43'3816.4
2015-Jun-21 10:15N 36°09' W 008°28'1116.2
2015-Jun-21 09:33N 36°13' W 008°41'1717.0
2015-Jun-21 08:33N 36°18' W 009°01'1616.2
2015-Jun-21 07:33N 36°23' W 009°20'1615.9
2015-Jun-21 06:32N 36°28' W 009°39'1615.9
2015-Jun-21 05:33N 36°33' W 009°57'1616.4
2015-Jun-21 04:33N 36°37' W 010°17'1716.5
2015-Jun-21 03:33N 36°41' W 010°37'1716.5
2015-Jun-21 02:33N 36°45' W 010°57'1616.2
2015-Jun-21 01:33N 36°49' W 011°17'1716.7
2015-Jun-21 00:33N 36°53' W 011°37'1716.7
2015-Jun-20 23:34N 36°56' W 011°57'1716.5
2015-Jun-20 22:33N 37°00' W 012°18'1616.3
2015-Jun-20 21:33N 37°04' W 012°38'1616.2
2015-Jun-20 20:34N 37°08' W 012°57'1616.1
2015-Jun-20 19:33N 37°11' W 013°17'1616.3
2015-Jun-20 18:34N 37°15' W 013°37'1716.7
2015-Jun-20 17:34N 37°19' W 013°57'1616.1
2015-Jun-20 16:33N 37°23' W 014°17'1616.0
2015-Jun-20 15:34N 37°27' W 014°36'1616.0
2015-Jun-20 14:33N 37°30' W 014°56'1716.0
2015-Jun-20 13:29N 37°34' W 015°17'1516.0
2015-Jun-20 12:33N 37°38' W 015°36'1615.8
2015-Jun-20 11:32N 37°41' W 015°55'1515.7
2015-Jun-20 10:33N 37°45' W 016°14'1615.8
2015-Jun-20 09:33N 37°49' W 016°34'16616.2
2015-Jun-19 23:18N 38°27' W 019°58'13915.9
2015-Jun-19 14:34N 38°53' W 022°53'3215.9
2015-Jun-19 12:33N 38°59' W 023°34'1615.8
2015-Jun-19 11:31N 39°02' W 023°54'1715.9
2015-Jun-19 10:28N 39°05' W 024°15'1916.4
2015-Jun-19 09:21N 39°08' W 024°39'10116.9
2015-Jun-19 03:21N 39°27' W 026°47'1417.3
2015-Jun-19 02:33N 39°30' W 027°05'1716.9
2015-Jun-19 01:33N 39°33' W 027°27'1717.4
2015-Jun-19 00:33N 39°36' W 027°49'1716.7
2015-Jun-18 23:33N 39°39' W 028°10'1717.2
2015-Jun-18 22:33N 39°42' W 028°32'1716.9
2015-Jun-18 21:33N 39°45' W 028°54'1616.5
2015-Jun-18 20:33N 39°48' W 029°15'1616.4
2015-Jun-18 19:33N 39°51' W 029°36'1716.7
2015-Jun-18 18:33N 39°54' W 029°57'1716.7
2015-Jun-18 17:32N 39°55' W 030°19'1916.7
2015-Jun-18 16:22N 39°55' W 030°44'1416.7
2015-Jun-18 15:33N 39°55' W 031°02'1616.5
2015-Jun-18 14:33N 39°55' W 031°24'1716.8
2015-Jun-18 13:33N 39°55' W 031°46'  
Track history (hours):
 
Tides and Currents Weather Stations Pressure Air Temp Water Temp Dewpoint Dewpoint Depression Visibility Wind Speed Wind Dir Waves Ship Positions

HUAL Seoul

Last reported at 2015-Jun-28 13:06 UTC. Time now 2015-Jul-04 07:02 UTC.
Position N 31°25' E 032°21'.

Type: Cargo ship. MMSI: 257496000.

Date/timePositionNaut miles runAvg speedWind from/ knotsBaromVisibWave heightAir tempDewpointWater temp
2015-Jun-28 13:06N 31°25' E 032°21'101 9.4
2015-Jun-28 02:19N 32°44' E 033°36'810.1
2015-Jun-28 01:33N 32°50' E 033°42'1010.3
2015-Jun-28 00:33N 32°57' E 033°50'1110.5
2015-Jun-27 23:33N 33°05' E 033°59'1110.8
2015-Jun-27 22:33N 33°12' E 034°09'1111.1
2015-Jun-27 21:33N 33°19' E 034°19'1110.9
2015-Jun-27 20:33N 33°26' E 034°29'1110.9
2015-Jun-27 19:33N 33°33' E 034°39'1110.9
2015-Jun-27 18:33N 33°41' E 034°49'1110.8
2015-Jun-27 17:33N 33°48' E 034°58'1110.5
2015-Jun-27 16:33N 33°55' E 035°08'10 9.6
2015-Jun-27 15:32N 33°56' E 035°20'10 9.1
2015-Jun-27 14:24N 33°56' E 035°32'2 2.4
2015-Jun-27 13:33N 33°54' E 035°31'0 0.0
2015-Jun-27 10:08N 33°54' E 035°31'51 4.7
2015-Jun-26 23:17N 33°58' E 034°30'1214.8
2015-Jun-26 22:27N 33°59' E 034°15'1914.9
2015-Jun-26 21:09N 34°00' E 033°52'914.9
2015-Jun-26 20:32N 34°01' E 033°41'1515.2
2015-Jun-26 19:31N 34°01' E 033°22'1714.6
2015-Jun-26 18:23N 34°03' E 033°02'1214.9
2015-Jun-26 17:32N 34°03' E 032°47'1615.7
2015-Jun-26 16:33N 34°04' E 032°28'1616.2
2015-Jun-26 15:34N 34°05' E 032°09'1616.0
2015-Jun-26 14:32N 34°06' E 031°49'1616.0
2015-Jun-26 13:33N 34°07' E 031°30'1212.6
2015-Jun-26 12:34N 34°08' E 031°15'1515.1
2015-Jun-26 11:33N 34°09' E 030°57'1515.0
2015-Jun-26 10:34N 34°10' E 030°39'14015.6
2015-Jun-26 01:33N 34°18' E 027°50'29115.8
2015-Jun-25 07:04N 34°54' E 021°59'815.8
2015-Jun-25 06:33N 34°56' E 021°49'4016.2
2015-Jun-25 04:05N 35°06' E 021°02'2615.9
2015-Jun-25 02:26N 35°12' E 020°31'1415.8
2015-Jun-25 01:33N 35°16' E 020°14'3215.8
2015-Jun-24 23:33N 35°23' E 019°36'1815.6
2015-Jun-24 22:24N 35°27' E 019°15'1515.3
2015-Jun-24 21:26N 35°31' E 018°57'6315.7
2015-Jun-24 17:27N 35°46' E 017°42'3015.8
2015-Jun-24 15:32N 35°53' E 017°06'1616.3
2015-Jun-24 14:33N 35°57' E 016°47'1616.4
2015-Jun-24 13:34N 36°01' E 016°27'2015.9
2015-Jun-24 12:18N 36°05' E 016°03'1216.0
2015-Jun-24 11:33N 36°08' E 015°49'1715.9
2015-Jun-24 10:28N 36°12' E 015°28'1715.8
2015-Jun-24 09:22N 36°16' E 015°07'1315.9
2015-Jun-24 08:34N 36°20' E 014°52'1716.5
2015-Jun-24 07:34N 36°25' E 014°32'1616.5
2015-Jun-24 06:34N 36°29' E 014°12'1616.0
2015-Jun-24 05:34N 36°34' E 013°53'1616.0
2015-Jun-24 04:33N 36°38' E 013°34'1616.2
2015-Jun-24 03:34N 36°43' E 013°15'1616.4
2015-Jun-24 02:34N 36°47' E 012°55'1616.1
2015-Jun-24 01:34N 36°52' E 012°36'1616.2
2015-Jun-24 00:34N 36°57' E 012°17'1616.1
2015-Jun-23 23:34N 37°01' E 011°57'1615.9
2015-Jun-23 22:34N 37°08' E 011°39'1616.2
2015-Jun-23 21:34N 37°16' E 011°22'1515.3
2015-Jun-23 20:34N 37°24' E 011°05'1615.8
2015-Jun-23 19:34N 37°29' E 010°46'816.1
2015-Jun-23 19:05N 37°32' E 010°38'37816.0
2015-Jun-22 19:33N 37°00' E 002°45'1616.5
2015-Jun-22 18:34N 36°57' E 002°25'1716.2
2015-Jun-22 17:32N 36°54' E 002°04'1616.3
2015-Jun-22 16:33N 36°51' E 001°44'1616.3
2015-Jun-22 15:34N 36°48' E 001°25'1716.5
2015-Jun-22 14:33N 36°46' E 001°04'1616.3
2015-Jun-22 13:33N 36°43' E 000°44'1616.3
2015-Jun-22 12:33N 36°40' E 000°24'1616.2
2015-Jun-22 11:34N 36°38' E 000°04'1716.5
2015-Jun-22 10:33N 36°35' W 000°16'1616.2
2015-Jun-22 09:33N 36°32' W 000°36'1816.5
2015-Jun-22 08:29N 36°29' W 000°58'1818.4
2015-Jun-22 07:30N 36°26' W 001°20'3216.2
2015-Jun-22 05:33N 36°20' W 001°58'1515.5
2015-Jun-22 04:34N 36°18' W 002°17'1716.0
2015-Jun-22 03:30N 36°15' W 002°38'3716.0
2015-Jun-22 01:11N 36°11' W 003°24'9216.4
2015-Jun-21 19:34N 35°59' W 005°17'2217.9
2015-Jun-21 18:20N 35°55' W 005°43'8417.0
2015-Jun-21 13:23N 35°54' W 007°27'1416.5
2015-Jun-21 12:34N 35°58' W 007°43'3816.4
2015-Jun-21 10:15N 36°09' W 008°28'1116.2
2015-Jun-21 09:33N 36°13' W 008°41'1717.0
2015-Jun-21 08:33N 36°18' W 009°01'1616.2
2015-Jun-21 07:33N 36°23' W 009°20'1615.9
2015-Jun-21 06:32N 36°28' W 009°39'1615.9
2015-Jun-21 05:33N 36°33' W 009°57'1616.4
2015-Jun-21 04:33N 36°37' W 010°17'1716.5
2015-Jun-21 03:33N 36°41' W 010°37'1716.5
2015-Jun-21 02:33N 36°45' W 010°57'1616.2
2015-Jun-21 01:33N 36°49' W 011°17'1716.7
2015-Jun-21 00:33N 36°53' W 011°37'1716.7
2015-Jun-20 23:34N 36°56' W 011°57'1716.5
2015-Jun-20 22:33N 37°00' W 012°18'1616.3
2015-Jun-20 21:33N 37°04' W 012°38'1616.2
2015-Jun-20 20:34N 37°08' W 012°57'1616.1
2015-Jun-20 19:33N 37°11' W 013°17'1616.3
2015-Jun-20 18:34N 37°15' W 013°37'1716.7
2015-Jun-20 17:34N 37°19' W 013°57'1616.1
2015-Jun-20 16:33N 37°23' W 014°17'1616.0
2015-Jun-20 15:34N 37°27' W 014°36'1616.0
2015-Jun-20 14:33N 37°30' W 014°56'1716.0
2015-Jun-20 13:29N 37°34' W 015°17'1516.0
2015-Jun-20 12:33N 37°38' W 015°36'1615.8
2015-Jun-20 11:32N 37°41' W 015°55'1515.7
2015-Jun-20 10:33N 37°45' W 016°14'1615.8
2015-Jun-20 09:33N 37°49' W 016°34'16616.2
2015-Jun-19 23:18N 38°27' W 019°58'13915.9
2015-Jun-19 14:34N 38°53' W 022°53'3215.9
2015-Jun-19 12:33N 38°59' W 023°34'1615.8
2015-Jun-19 11:31N 39°02' W 023°54'1715.9
2015-Jun-19 10:28N 39°05' W 024°15'1916.4
2015-Jun-19 09:21N 39°08' W 024°39'10116.9
2015-Jun-19 03:21N 39°27' W 026°47'1417.3
2015-Jun-19 02:33N 39°30' W 027°05'1716.9
2015-Jun-19 01:33N 39°33' W 027°27'1717.4
2015-Jun-19 00:33N 39°36' W 027°49'1716.7
2015-Jun-18 23:33N 39°39' W 028°10'1717.2
2015-Jun-18 22:33N 39°42' W 028°32'1716.9
2015-Jun-18 21:33N 39°45' W 028°54'1616.5
2015-Jun-18 20:33N 39°48' W 029°15'1616.4
2015-Jun-18 19:33N 39°51' W 029°36'1716.7
2015-Jun-18 18:33N 39°54' W 029°57'1716.7
2015-Jun-18 17:32N 39°55' W 030°19'1916.7
2015-Jun-18 16:22N 39°55' W 030°44'1416.7
2015-Jun-18 15:33N 39°55' W 031°02'1616.5
2015-Jun-18 14:33N 39°55' W 031°24'1716.8
2015-Jun-18 13:33N 39°55' W 031°46'  

Dump ship's entire track history